sensor_id;sensor_type;location;lat;lon;timestamp;P1;durP1;ratioP1;P2;durP2;ratioP2
21036;SDS011;10677;50.942;4.028;2023-06-01T00:00:00;20.52;;;11.73;;
21036;SDS011;10677;50.942;4.028;2023-06-01T00:02:27;21.10;;;11.38;;
21036;SDS011;10677;50.942;4.028;2023-06-01T00:04:53;16.23;;;11.13;;
21036;SDS011;10677;50.942;4.028;2023-06-01T00:07:19;17.83;;;10.63;;
21036;SDS011;10677;50.942;4.028;2023-06-01T00:09:45;20.73;;;11.68;;
21036;SDS011;10677;50.942;4.028;2023-06-01T00:12:11;18.00;;;12.40;;
21036;SDS011;10677;50.942;4.028;2023-06-01T00:14:38;20.27;;;12.20;;
21036;SDS011;10677;50.942;4.028;2023-06-01T00:17:03;23.73;;;12.98;;
21036;SDS011;10677;50.942;4.028;2023-06-01T00:19:30;20.33;;;12.55;;
21036;SDS011;10677;50.942;4.028;2023-06-01T00:21:56;18.48;;;11.50;;
21036;SDS011;10677;50.942;4.028;2023-06-01T00:24:22;19.95;;;12.13;;
21036;SDS011;10677;50.942;4.028;2023-06-01T00:26:48;17.23;;;11.73;;
21036;SDS011;10677;50.942;4.028;2023-06-01T00:29:14;18.38;;;12.38;;
21036;SDS011;10677;50.942;4.028;2023-06-01T00:31:40;19.50;;;11.68;;
21036;SDS011;10677;50.942;4.028;2023-06-01T00:34:05;23.75;;;13.55;;
21036;SDS011;10677;50.942;4.028;2023-06-01T00:36:32;25.17;;;12.73;;
21036;SDS011;10677;50.942;4.028;2023-06-01T00:38:58;21.90;;;12.38;;
21036;SDS011;10677;50.942;4.028;2023-06-01T00:41:28;22.25;;;13.00;;
21036;SDS011;10677;50.942;4.028;2023-06-01T00:43:54;22.30;;;12.23;;
21036;SDS011;10677;50.942;4.028;2023-06-01T00:46:19;24.52;;;13.45;;
21036;SDS011;10677;50.942;4.028;2023-06-01T00:48:46;22.65;;;12.88;;
21036;SDS011;10677;50.942;4.028;2023-06-01T00:51:12;27.20;;;12.80;;
21036;SDS011;10677;50.942;4.028;2023-06-01T00:53:40;19.75;;;13.65;;
21036;SDS011;10677;50.942;4.028;2023-06-01T00:56:06;21.77;;;13.57;;
21036;SDS011;10677;50.942;4.028;2023-06-01T00:58:32;24.50;;;13.98;;
21036;SDS011;10677;50.942;4.028;2023-06-01T01:00:58;23.42;;;15.07;;
21036;SDS011;10677;50.942;4.028;2023-06-01T01:03:24;23.33;;;13.60;;
21036;SDS011;10677;50.942;4.028;2023-06-01T01:05:51;28.70;;;14.13;;
21036;SDS011;10677;50.942;4.028;2023-06-01T01:08:41;22.13;;;13.00;;
21036;SDS011;10677;50.942;4.028;2023-06-01T01:11:20;22.67;;;14.43;;
21036;SDS011;10677;50.942;4.028;2023-06-01T01:13:52;22.90;;;14.02;;
21036;SDS011;10677;50.942;4.028;2023-06-01T01:16:31;22.10;;;13.85;;
21036;SDS011;10677;50.942;4.028;2023-06-01T01:20:14;22.35;;;14.23;;
21036;SDS011;10677;50.942;4.028;2023-06-01T01:28:06;24.73;;;14.88;;
21036;SDS011;10677;50.942;4.028;2023-06-01T01:30:51;26.20;;;15.13;;
21036;SDS011;10677;50.942;4.028;2023-06-01T01:33:20;24.60;;;14.00;;
21036;SDS011;10677;50.942;4.028;2023-06-01T01:35:47;26.55;;;14.73;;
21036;SDS011;10677;50.942;4.028;2023-06-01T01:38:14;27.67;;;14.38;;
21036;SDS011;10677;50.942;4.028;2023-06-01T01:40:40;22.85;;;14.85;;
21036;SDS011;10677;50.942;4.028;2023-06-01T01:43:05;24.60;;;13.73;;
21036;SDS011;10677;50.942;4.028;2023-06-01T01:45:31;25.60;;;13.40;;
21036;SDS011;10677;50.942;4.028;2023-06-01T01:48:11;24.35;;;14.38;;
21036;SDS011;10677;50.942;4.028;2023-06-01T01:50:58;25.35;;;14.32;;
21036;SDS011;10677;50.942;4.028;2023-06-01T01:53:38;23.38;;;13.75;;
21036;SDS011;10677;50.942;4.028;2023-06-01T01:56:06;24.00;;;13.20;;
21036;SDS011;10677;50.942;4.028;2023-06-01T01:58:33;30.98;;;15.30;;
21036;SDS011;10677;50.942;4.028;2023-06-01T02:00:59;22.90;;;13.85;;
21036;SDS011;10677;50.942;4.028;2023-06-01T02:03:26;22.48;;;14.40;;
21036;SDS011;10677;50.942;4.028;2023-06-01T02:05:52;24.90;;;14.80;;
21036;SDS011;10677;50.942;4.028;2023-06-01T02:08:17;24.33;;;15.07;;
21036;SDS011;10677;50.942;4.028;2023-06-01T02:10:43;27.83;;;13.85;;
21036;SDS011;10677;50.942;4.028;2023-06-01T02:13:09;22.58;;;13.88;;
21036;SDS011;10677;50.942;4.028;2023-06-01T02:15:35;25.05;;;13.85;;
21036;SDS011;10677;50.942;4.028;2023-06-01T02:18:01;29.17;;;15.38;;
21036;SDS011;10677;50.942;4.028;2023-06-01T02:20:27;28.05;;;14.38;;
21036;SDS011;10677;50.942;4.028;2023-06-01T02:22:53;26.58;;;15.27;;
21036;SDS011;10677;50.942;4.028;2023-06-01T02:25:18;26.55;;;13.98;;
21036;SDS011;10677;50.942;4.028;2023-06-01T02:27:44;25.75;;;14.27;;
21036;SDS011;10677;50.942;4.028;2023-06-01T02:30:10;26.88;;;15.07;;
21036;SDS011;10677;50.942;4.028;2023-06-01T02:32:36;28.05;;;15.13;;
21036;SDS011;10677;50.942;4.028;2023-06-01T02:35:03;26.15;;;13.85;;
21036;SDS011;10677;50.942;4.028;2023-06-01T02:37:29;25.13;;;14.55;;
21036;SDS011;10677;50.942;4.028;2023-06-01T02:39:55;26.42;;;14.38;;
21036;SDS011;10677;50.942;4.028;2023-06-01T02:42:20;24.85;;;15.07;;
21036;SDS011;10677;50.942;4.028;2023-06-01T02:44:46;25.42;;;13.38;;
21036;SDS011;10677;50.942;4.028;2023-06-01T02:47:11;25.50;;;14.70;;
21036;SDS011;10677;50.942;4.028;2023-06-01T02:49:37;24.70;;;14.07;;
21036;SDS011;10677;50.942;4.028;2023-06-01T02:52:03;26.60;;;14.10;;
21036;SDS011;10677;50.942;4.028;2023-06-01T02:54:28;26.92;;;14.57;;
21036;SDS011;10677;50.942;4.028;2023-06-01T02:56:54;22.60;;;13.95;;
21036;SDS011;10677;50.942;4.028;2023-06-01T02:59:20;26.15;;;14.40;;
21036;SDS011;10677;50.942;4.028;2023-06-01T03:01:45;26.05;;;15.30;;
21036;SDS011;10677;50.942;4.028;2023-06-01T03:04:13;26.35;;;14.50;;
21036;SDS011;10677;50.942;4.028;2023-06-01T03:06:40;24.30;;;14.95;;
21036;SDS011;10677;50.942;4.028;2023-06-01T03:09:05;26.45;;;14.52;;
21036;SDS011;10677;50.942;4.028;2023-06-01T03:11:39;26.52;;;14.60;;
21036;SDS011;10677;50.942;4.028;2023-06-01T03:14:06;26.52;;;14.82;;
21036;SDS011;10677;50.942;4.028;2023-06-01T03:16:31;29.67;;;14.63;;
21036;SDS011;10677;50.942;4.028;2023-06-01T03:18:57;29.95;;;15.35;;
21036;SDS011;10677;50.942;4.028;2023-06-01T03:21:23;28.65;;;15.50;;
21036;SDS011;10677;50.942;4.028;2023-06-01T03:23:49;32.85;;;15.60;;
21036;SDS011;10677;50.942;4.028;2023-06-01T03:26:15;29.75;;;15.07;;
21036;SDS011;10677;50.942;4.028;2023-06-01T03:28:43;23.70;;;15.23;;
21036;SDS011;10677;50.942;4.028;2023-06-01T03:31:09;28.85;;;15.38;;
21036;SDS011;10677;50.942;4.028;2023-06-01T03:33:37;25.10;;;14.55;;
21036;SDS011;10677;50.942;4.028;2023-06-01T03:36:03;27.15;;;15.20;;
21036;SDS011;10677;50.942;4.028;2023-06-01T03:38:29;29.30;;;15.80;;
21036;SDS011;10677;50.942;4.028;2023-06-01T03:40:56;29.05;;;15.77;;
21036;SDS011;10677;50.942;4.028;2023-06-01T03:43:21;28.65;;;15.30;;
21036;SDS011;10677;50.942;4.028;2023-06-01T03:45:47;28.27;;;15.20;;
21036;SDS011;10677;50.942;4.028;2023-06-01T03:48:12;29.15;;;15.85;;
21036;SDS011;10677;50.942;4.028;2023-06-01T03:50:38;32.80;;;15.93;;
21036;SDS011;10677;50.942;4.028;2023-06-01T03:53:04;28.25;;;15.50;;
21036;SDS011;10677;50.942;4.028;2023-06-01T03:55:30;27.85;;;15.30;;
21036;SDS011;10677;50.942;4.028;2023-06-01T03:57:56;28.77;;;15.98;;
21036;SDS011;10677;50.942;4.028;2023-06-01T04:00:22;26.17;;;15.75;;
21036;SDS011;10677;50.942;4.028;2023-06-01T04:02:56;27.20;;;16.30;;
21036;SDS011;10677;50.942;4.028;2023-06-01T04:05:24;28.08;;;15.77;;
21036;SDS011;10677;50.942;4.028;2023-06-01T04:07:51;28.20;;;16.25;;
21036;SDS011;10677;50.942;4.028;2023-06-01T04:10:18;32.58;;;15.95;;
21036;SDS011;10677;50.942;4.028;2023-06-01T04:12:44;28.77;;;16.25;;
21036;SDS011;10677;50.942;4.028;2023-06-01T04:15:12;28.52;;;16.17;;
21036;SDS011;10677;50.942;4.028;2023-06-01T04:17:39;29.42;;;16.10;;
21036;SDS011;10677;50.942;4.028;2023-06-01T04:20:08;27.20;;;15.73;;
21036;SDS011;10677;50.942;4.028;2023-06-01T04:22:35;29.77;;;16.85;;
21036;SDS011;10677;50.942;4.028;2023-06-01T04:25:03;28.10;;;16.40;;
21036;SDS011;10677;50.942;4.028;2023-06-01T04:27:32;28.85;;;16.65;;
21036;SDS011;10677;50.942;4.028;2023-06-01T04:30:01;28.90;;;16.38;;
21036;SDS011;10677;50.942;4.028;2023-06-01T04:32:32;29.92;;;17.20;;
21036;SDS011;10677;50.942;4.028;2023-06-01T04:35:05;29.95;;;17.70;;
21036;SDS011;10677;50.942;4.028;2023-06-01T04:37:32;31.17;;;17.63;;
21036;SDS011;10677;50.942;4.028;2023-06-01T04:40:02;34.15;;;18.20;;
21036;SDS011;10677;50.942;4.028;2023-06-01T04:42:33;31.45;;;17.55;;
21036;SDS011;10677;50.942;4.028;2023-06-01T04:44:59;33.58;;;18.90;;
21036;SDS011;10677;50.942;4.028;2023-06-01T04:47:29;37.33;;;19.40;;
21036;SDS011;10677;50.942;4.028;2023-06-01T04:49:56;34.35;;;19.45;;
21036;SDS011;10677;50.942;4.028;2023-06-01T04:52:22;36.17;;;19.42;;
21036;SDS011;10677;50.942;4.028;2023-06-01T04:54:48;33.65;;;20.20;;
21036;SDS011;10677;50.942;4.028;2023-06-01T04:57:14;36.45;;;20.27;;
21036;SDS011;10677;50.942;4.028;2023-06-01T04:59:41;37.33;;;21.50;;
21036;SDS011;10677;50.942;4.028;2023-06-01T05:02:07;36.85;;;21.38;;
21036;SDS011;10677;50.942;4.028;2023-06-01T05:04:33;41.08;;;22.50;;
21036;SDS011;10677;50.942;4.028;2023-06-01T05:06:59;38.70;;;22.20;;
21036;SDS011;10677;50.942;4.028;2023-06-01T05:09:25;41.30;;;22.60;;
21036;SDS011;10677;50.942;4.028;2023-06-01T05:11:51;43.30;;;23.20;;
21036;SDS011;10677;50.942;4.028;2023-06-01T05:14:17;42.08;;;22.65;;
21036;SDS011;10677;50.942;4.028;2023-06-01T05:16:43;37.40;;;22.30;;
21036;SDS011;10677;50.942;4.028;2023-06-01T05:19:08;41.58;;;22.10;;
21036;SDS011;10677;50.942;4.028;2023-06-01T05:21:34;39.30;;;22.63;;
21036;SDS011;10677;50.942;4.028;2023-06-01T05:24:00;38.72;;;23.55;;
21036;SDS011;10677;50.942;4.028;2023-06-01T05:26:26;46.50;;;26.75;;
21036;SDS011;10677;50.942;4.028;2023-06-01T05:28:52;43.92;;;24.55;;
21036;SDS011;10677;50.942;4.028;2023-06-01T05:31:17;49.58;;;26.10;;
21036;SDS011;10677;50.942;4.028;2023-06-01T05:33:44;49.22;;;28.40;;
21036;SDS011;10677;50.942;4.028;2023-06-01T05:36:10;54.13;;;29.85;;
21036;SDS011;10677;50.942;4.028;2023-06-01T05:38:36;51.30;;;28.33;;
21036;SDS011;10677;50.942;4.028;2023-06-01T05:41:02;51.70;;;28.63;;
21036;SDS011;10677;50.942;4.028;2023-06-01T05:43:28;52.33;;;29.95;;
21036;SDS011;10677;50.942;4.028;2023-06-01T05:45:53;57.50;;;31.23;;
21036;SDS011;10677;50.942;4.028;2023-06-01T05:48:19;48.20;;;28.45;;
21036;SDS011;10677;50.942;4.028;2023-06-01T05:50:45;59.50;;;30.40;;
21036;SDS011;10677;50.942;4.028;2023-06-01T05:53:10;59.67;;;31.85;;
21036;SDS011;10677;50.942;4.028;2023-06-01T05:55:36;57.05;;;31.67;;
21036;SDS011;10677;50.942;4.028;2023-06-01T05:58:02;62.33;;;32.40;;
21036;SDS011;10677;50.942;4.028;2023-06-01T06:00:29;59.22;;;31.50;;
21036;SDS011;10677;50.942;4.028;2023-06-01T06:02:57;62.15;;;33.03;;
21036;SDS011;10677;50.942;4.028;2023-06-01T06:05:22;55.60;;;31.02;;
21036;SDS011;10677;50.942;4.028;2023-06-01T06:07:49;57.15;;;31.73;;
21036;SDS011;10677;50.942;4.028;2023-06-01T06:10:15;53.83;;;30.35;;
21036;SDS011;10677;50.942;4.028;2023-06-01T06:12:43;57.00;;;33.33;;
21036;SDS011;10677;50.942;4.028;2023-06-01T06:15:08;52.78;;;29.52;;
21036;SDS011;10677;50.942;4.028;2023-06-01T06:17:35;77.40;;;43.50;;
21036;SDS011;10677;50.942;4.028;2023-06-01T06:20:00;69.05;;;41.58;;
21036;SDS011;10677;50.942;4.028;2023-06-01T06:22:31;64.80;;;36.08;;
21036;SDS011;10677;50.942;4.028;2023-06-01T06:24:57;49.10;;;29.13;;
21036;SDS011;10677;50.942;4.028;2023-06-01T06:27:22;53.22;;;30.45;;
21036;SDS011;10677;50.942;4.028;2023-06-01T06:29:48;52.63;;;30.83;;
21036;SDS011;10677;50.942;4.028;2023-06-01T06:32:14;50.85;;;29.05;;
21036;SDS011;10677;50.942;4.028;2023-06-01T06:34:43;54.10;;;30.67;;
21036;SDS011;10677;50.942;4.028;2023-06-01T06:37:08;64.60;;;32.53;;
21036;SDS011;10677;50.942;4.028;2023-06-01T06:39:36;53.85;;;31.15;;
21036;SDS011;10677;50.942;4.028;2023-06-01T06:42:03;54.67;;;31.33;;
21036;SDS011;10677;50.942;4.028;2023-06-01T06:44:32;54.85;;;30.92;;
21036;SDS011;10677;50.942;4.028;2023-06-01T06:46:58;57.30;;;32.92;;
21036;SDS011;10677;50.942;4.028;2023-06-01T06:49:25;55.38;;;33.38;;
21036;SDS011;10677;50.942;4.028;2023-06-01T06:51:51;52.08;;;31.83;;
21036;SDS011;10677;50.942;4.028;2023-06-01T06:54:16;56.97;;;32.63;;
21036;SDS011;10677;50.942;4.028;2023-06-01T06:56:42;63.45;;;33.97;;
21036;SDS011;10677;50.942;4.028;2023-06-01T06:59:09;58.30;;;34.05;;
21036;SDS011;10677;50.942;4.028;2023-06-01T07:01:35;53.13;;;30.85;;
21036;SDS011;10677;50.942;4.028;2023-06-01T07:04:03;55.22;;;31.92;;
21036;SDS011;10677;50.942;4.028;2023-06-01T07:06:32;50.85;;;28.98;;
21036;SDS011;10677;50.942;4.028;2023-06-01T07:08:58;49.65;;;29.63;;
21036;SDS011;10677;50.942;4.028;2023-06-01T07:11:24;49.17;;;29.10;;
21036;SDS011;10677;50.942;4.028;2023-06-01T07:13:52;49.63;;;29.23;;
21036;SDS011;10677;50.942;4.028;2023-06-01T07:16:18;47.45;;;29.83;;
21036;SDS011;10677;50.942;4.028;2023-06-01T07:18:44;42.88;;;28.20;;
21036;SDS011;10677;50.942;4.028;2023-06-01T07:21:10;47.45;;;29.98;;
21036;SDS011;10677;50.942;4.028;2023-06-01T07:23:35;46.35;;;30.33;;
21036;SDS011;10677;50.942;4.028;2023-06-01T07:26:01;44.03;;;29.42;;
21036;SDS011;10677;50.942;4.028;2023-06-01T07:28:27;48.40;;;29.48;;
21036;SDS011;10677;50.942;4.028;2023-06-01T07:30:53;44.88;;;28.85;;
21036;SDS011;10677;50.942;4.028;2023-06-01T07:33:19;44.97;;;27.48;;
21036;SDS011;10677;50.942;4.028;2023-06-01T07:35:47;45.88;;;27.52;;
21036;SDS011;10677;50.942;4.028;2023-06-01T07:38:14;45.95;;;28.30;;
21036;SDS011;10677;50.942;4.028;2023-06-01T07:40:40;40.78;;;27.80;;
21036;SDS011;10677;50.942;4.028;2023-06-01T07:43:06;45.08;;;28.40;;
21036;SDS011;10677;50.942;4.028;2023-06-01T07:45:31;40.75;;;27.35;;
21036;SDS011;10677;50.942;4.028;2023-06-01T07:47:57;47.53;;;29.48;;
21036;SDS011;10677;50.942;4.028;2023-06-01T07:50:26;45.78;;;29.38;;
21036;SDS011;10677;50.942;4.028;2023-06-01T07:52:56;46.60;;;29.75;;
21036;SDS011;10677;50.942;4.028;2023-06-01T07:55:22;41.22;;;28.73;;
21036;SDS011;10677;50.942;4.028;2023-06-01T07:57:49;48.53;;;29.63;;
21036;SDS011;10677;50.942;4.028;2023-06-01T08:00:15;43.15;;;29.13;;
21036;SDS011;10677;50.942;4.028;2023-06-01T08:02:42;44.35;;;28.48;;
21036;SDS011;10677;50.942;4.028;2023-06-01T08:05:09;44.90;;;28.45;;
21036;SDS011;10677;50.942;4.028;2023-06-01T08:07:36;49.28;;;29.80;;
21036;SDS011;10677;50.942;4.028;2023-06-01T08:10:06;47.70;;;28.98;;
21036;SDS011;10677;50.942;4.028;2023-06-01T08:12:33;47.65;;;29.50;;
21036;SDS011;10677;50.942;4.028;2023-06-01T08:15:00;46.47;;;28.40;;
21036;SDS011;10677;50.942;4.028;2023-06-01T08:17:26;44.83;;;28.02;;
21036;SDS011;10677;50.942;4.028;2023-06-01T08:19:52;50.50;;;30.13;;
21036;SDS011;10677;50.942;4.028;2023-06-01T08:22:19;46.65;;;30.02;;
21036;SDS011;10677;50.942;4.028;2023-06-01T08:24:47;49.28;;;30.85;;
21036;SDS011;10677;50.942;4.028;2023-06-01T08:27:19;53.80;;;31.88;;
21036;SDS011;10677;50.942;4.028;2023-06-01T08:29:46;50.00;;;32.22;;
21036;SDS011;10677;50.942;4.028;2023-06-01T08:32:19;51.88;;;32.17;;
21036;SDS011;10677;50.942;4.028;2023-06-01T08:34:45;51.03;;;31.98;;
21036;SDS011;10677;50.942;4.028;2023-06-01T08:37:12;56.05;;;31.42;;
21036;SDS011;10677;50.942;4.028;2023-06-01T08:39:38;47.72;;;31.80;;
21036;SDS011;10677;50.942;4.028;2023-06-01T08:44:54;46.83;;;29.83;;
21036;SDS011;10677;50.942;4.028;2023-06-01T08:47:26;46.80;;;29.80;;
21036;SDS011;10677;50.942;4.028;2023-06-01T08:49:52;42.33;;;28.33;;
21036;SDS011;10677;50.942;4.028;2023-06-01T08:52:20;41.80;;;25.30;;
21036;SDS011;10677;50.942;4.028;2023-06-01T08:54:49;36.50;;;25.08;;
21036;SDS011;10677;50.942;4.028;2023-06-01T08:57:15;39.42;;;24.85;;
21036;SDS011;10677;50.942;4.028;2023-06-01T08:59:41;38.40;;;23.13;;
21036;SDS011;10677;50.942;4.028;2023-06-01T09:02:07;35.30;;;23.25;;
21036;SDS011;10677;50.942;4.028;2023-06-01T09:04:36;38.60;;;23.50;;
21036;SDS011;10677;50.942;4.028;2023-06-01T09:07:06;33.20;;;21.48;;
21036;SDS011;10677;50.942;4.028;2023-06-01T09:09:32;36.22;;;20.17;;
21036;SDS011;10677;50.942;4.028;2023-06-01T09:17:29;26.45;;;17.83;;
21036;SDS011;10677;50.942;4.028;2023-06-01T09:19:55;22.60;;;15.95;;
21036;SDS011;10677;50.942;4.028;2023-06-01T09:22:21;25.83;;;15.07;;
21036;SDS011;10677;50.942;4.028;2023-06-01T09:24:54;21.35;;;14.77;;
21036;SDS011;10677;50.942;4.028;2023-06-01T09:27:24;23.67;;;15.07;;
21036;SDS011;10677;50.942;4.028;2023-06-01T09:29:57;21.77;;;12.82;;
21036;SDS011;10677;50.942;4.028;2023-06-01T09:32:26;22.08;;;14.48;;
21036;SDS011;10677;50.942;4.028;2023-06-01T09:34:52;21.77;;;13.90;;
21036;SDS011;10677;50.942;4.028;2023-06-01T09:37:19;23.88;;;15.02;;
21036;SDS011;10677;50.942;4.028;2023-06-01T09:39:49;23.60;;;14.98;;
21036;SDS011;10677;50.942;4.028;2023-06-01T09:42:31;21.92;;;13.68;;
21036;SDS011;10677;50.942;4.028;2023-06-01T09:45:15;24.50;;;14.52;;
21036;SDS011;10677;50.942;4.028;2023-06-01T09:47:48;22.30;;;14.75;;
21036;SDS011;10677;50.942;4.028;2023-06-01T09:50:34;24.95;;;13.00;;
21036;SDS011;10677;50.942;4.028;2023-06-01T09:53:01;22.08;;;13.57;;
21036;SDS011;10677;50.942;4.028;2023-06-01T09:55:28;19.38;;;13.05;;
21036;SDS011;10677;50.942;4.028;2023-06-01T10:00:49;23.48;;;13.40;;
21036;SDS011;10677;50.942;4.028;2023-06-01T10:03:16;20.92;;;13.20;;
21036;SDS011;10677;50.942;4.028;2023-06-01T10:05:43;20.88;;;12.45;;
21036;SDS011;10677;50.942;4.028;2023-06-01T10:08:11;22.25;;;12.43;;
21036;SDS011;10677;50.942;4.028;2023-06-01T10:10:38;19.98;;;12.20;;
21036;SDS011;10677;50.942;4.028;2023-06-01T10:13:04;22.92;;;13.05;;
21036;SDS011;10677;50.942;4.028;2023-06-01T10:15:31;20.15;;;13.00;;
21036;SDS011;10677;50.942;4.028;2023-06-01T10:17:58;18.83;;;13.00;;
21036;SDS011;10677;50.942;4.028;2023-06-01T10:20:30;19.38;;;13.18;;
21036;SDS011;10677;50.942;4.028;2023-06-01T10:23:01;18.65;;;11.95;;
21036;SDS011;10677;50.942;4.028;2023-06-01T10:25:38;20.23;;;12.80;;
21036;SDS011;10677;50.942;4.028;2023-06-01T10:28:09;19.73;;;12.80;;
21036;SDS011;10677;50.942;4.028;2023-06-01T10:30:37;20.63;;;11.93;;
21036;SDS011;10677;50.942;4.028;2023-06-01T10:33:03;20.65;;;12.70;;
21036;SDS011;10677;50.942;4.028;2023-06-01T10:40:44;21.38;;;14.05;;
21036;SDS011;10677;50.942;4.028;2023-06-01T10:46:02;19.85;;;13.32;;
21036;SDS011;10677;50.942;4.028;2023-06-01T10:51:31;23.10;;;13.30;;
21036;SDS011;10677;50.942;4.028;2023-06-01T10:57:17;21.87;;;16.17;;
21036;SDS011;10677;50.942;4.028;2023-06-01T11:08:50;18.77;;;12.50;;
21036;SDS011;10677;50.942;4.028;2023-06-01T11:10:59;23.35;;;14.55;;
21036;SDS011;10677;50.942;4.028;2023-06-01T11:13:31;21.45;;;12.70;;
21036;SDS011;10677;50.942;4.028;2023-06-01T11:18:42;21.60;;;13.65;;
21036;SDS011;10677;50.942;4.028;2023-06-01T11:21:17;20.65;;;13.75;;
21036;SDS011;10677;50.942;4.028;2023-06-01T11:23:46;20.02;;;13.40;;
21036;SDS011;10677;50.942;4.028;2023-06-01T11:26:16;23.30;;;13.93;;
21036;SDS011;10677;50.942;4.028;2023-06-01T11:28:43;22.60;;;12.68;;
21036;SDS011;10677;50.942;4.028;2023-06-01T11:31:12;23.77;;;13.93;;
21036;SDS011;10677;50.942;4.028;2023-06-01T11:33:53;22.10;;;13.75;;
21036;SDS011;10677;50.942;4.028;2023-06-01T11:36:22;19.63;;;12.48;;
21036;SDS011;10677;50.942;4.028;2023-06-01T11:38:50;19.98;;;12.98;;
21036;SDS011;10677;50.942;4.028;2023-06-01T11:41:16;21.52;;;12.70;;
21036;SDS011;10677;50.942;4.028;2023-06-01T11:43:53;19.75;;;11.82;;
21036;SDS011;10677;50.942;4.028;2023-06-01T11:46:20;21.65;;;12.75;;
21036;SDS011;10677;50.942;4.028;2023-06-01T11:51:28;20.33;;;12.30;;
21036;SDS011;10677;50.942;4.028;2023-06-01T11:53:55;18.65;;;11.65;;
21036;SDS011;10677;50.942;4.028;2023-06-01T11:56:26;23.23;;;11.98;;
21036;SDS011;10677;50.942;4.028;2023-06-01T11:58:56;19.15;;;12.15;;
21036;SDS011;10677;50.942;4.028;2023-06-01T12:01:24;20.88;;;13.85;;
21036;SDS011;10677;50.942;4.028;2023-06-01T12:03:50;18.75;;;12.52;;
21036;SDS011;10677;50.942;4.028;2023-06-01T12:06:20;20.92;;;12.77;;
21036;SDS011;10677;50.942;4.028;2023-06-01T12:08:47;22.13;;;13.25;;
21036;SDS011;10677;50.942;4.028;2023-06-01T12:11:26;20.55;;;12.00;;
21036;SDS011;10677;50.942;4.028;2023-06-01T12:13:53;19.30;;;12.27;;
21036;SDS011;10677;50.942;4.028;2023-06-01T12:16:24;23.35;;;12.98;;
21036;SDS011;10677;50.942;4.028;2023-06-01T12:18:53;19.35;;;13.55;;
21036;SDS011;10677;50.942;4.028;2023-06-01T12:21:20;19.50;;;12.43;;
21036;SDS011;10677;50.942;4.028;2023-06-01T12:23:50;20.38;;;11.35;;
21036;SDS011;10677;50.942;4.028;2023-06-01T12:26:19;22.48;;;12.57;;
21036;SDS011;10677;50.942;4.028;2023-06-01T12:28:54;21.13;;;12.65;;
21036;SDS011;10677;50.942;4.028;2023-06-01T12:31:21;24.85;;;14.93;;
21036;SDS011;10677;50.942;4.028;2023-06-01T12:33:47;19.95;;;12.13;;
21036;SDS011;10677;50.942;4.028;2023-06-01T12:38:56;20.60;;;11.60;;
21036;SDS011;10677;50.942;4.028;2023-06-01T12:41:24;21.83;;;11.75;;
21036;SDS011;10677;50.942;4.028;2023-06-01T12:43:50;19.15;;;10.82;;
21036;SDS011;10677;50.942;4.028;2023-06-01T12:46:21;22.02;;;12.23;;
21036;SDS011;10677;50.942;4.028;2023-06-01T12:48:52;18.42;;;10.65;;
21036;SDS011;10677;50.942;4.028;2023-06-01T12:51:20;18.98;;;11.38;;
21036;SDS011;10677;50.942;4.028;2023-06-01T12:53:47;18.23;;;10.65;;
21036;SDS011;10677;50.942;4.028;2023-06-01T12:59:36;18.48;;;11.18;;
21036;SDS011;10677;50.942;4.028;2023-06-01T13:02:03;19.02;;;9.98;;
21036;SDS011;10677;50.942;4.028;2023-06-01T13:04:30;19.05;;;10.63;;
21036;SDS011;10677;50.942;4.028;2023-06-01T13:06:55;19.83;;;10.25;;
21036;SDS011;10677;50.942;4.028;2023-06-01T13:09:21;17.13;;;10.57;;
21036;SDS011;10677;50.942;4.028;2023-06-01T13:11:47;17.05;;;9.68;;
21036;SDS011;10677;50.942;4.028;2023-06-01T13:14:14;16.77;;;9.82;;
21036;SDS011;10677;50.942;4.028;2023-06-01T13:16:39;16.08;;;9.82;;
21036;SDS011;10677;50.942;4.028;2023-06-01T13:19:05;16.50;;;10.02;;
21036;SDS011;10677;50.942;4.028;2023-06-01T13:21:32;18.40;;;9.45;;
21036;SDS011;10677;50.942;4.028;2023-06-01T13:23:58;22.42;;;9.35;;
21036;SDS011;10677;50.942;4.028;2023-06-01T13:26:25;18.05;;;8.30;;
21036;SDS011;10677;50.942;4.028;2023-06-01T13:28:51;16.00;;;10.15;;
21036;SDS011;10677;50.942;4.028;2023-06-01T13:31:18;15.43;;;9.32;;
21036;SDS011;10677;50.942;4.028;2023-06-01T13:33:44;14.80;;;9.15;;
21036;SDS011;10677;50.942;4.028;2023-06-01T13:36:10;14.55;;;9.23;;
21036;SDS011;10677;50.942;4.028;2023-06-01T13:38:36;12.73;;;8.48;;
21036;SDS011;10677;50.942;4.028;2023-06-01T13:41:01;17.02;;;9.60;;
21036;SDS011;10677;50.942;4.028;2023-06-01T13:43:27;20.35;;;8.93;;
21036;SDS011;10677;50.942;4.028;2023-06-01T13:45:53;14.55;;;8.13;;
21036;SDS011;10677;50.942;4.028;2023-06-01T13:48:19;17.67;;;8.93;;
21036;SDS011;10677;50.942;4.028;2023-06-01T13:50:47;14.18;;;9.52;;
21036;SDS011;10677;50.942;4.028;2023-06-01T13:53:13;17.88;;;10.27;;
21036;SDS011;10677;50.942;4.028;2023-06-01T13:55:39;15.90;;;9.90;;
21036;SDS011;10677;50.942;4.028;2023-06-01T13:58:05;15.07;;;9.80;;
21036;SDS011;10677;50.942;4.028;2023-06-01T14:00:31;12.82;;;9.35;;
21036;SDS011;10677;50.942;4.028;2023-06-01T14:02:57;13.07;;;9.02;;
21036;SDS011;10677;50.942;4.028;2023-06-01T14:05:22;15.00;;;8.23;;
21036;SDS011;10677;50.942;4.028;2023-06-01T14:07:48;15.93;;;8.88;;
21036;SDS011;10677;50.942;4.028;2023-06-01T14:10:14;14.38;;;8.90;;
21036;SDS011;10677;50.942;4.028;2023-06-01T14:12:41;12.43;;;8.00;;
21036;SDS011;10677;50.942;4.028;2023-06-01T14:15:07;15.40;;;9.20;;
21036;SDS011;10677;50.942;4.028;2023-06-01T14:17:38;16.23;;;9.63;;
21036;SDS011;10677;50.942;4.028;2023-06-01T14:20:04;15.73;;;9.35;;
21036;SDS011;10677;50.942;4.028;2023-06-01T14:22:30;13.48;;;9.75;;
21036;SDS011;10677;50.942;4.028;2023-06-01T14:24:56;16.55;;;9.68;;
21036;SDS011;10677;50.942;4.028;2023-06-01T14:27:21;16.15;;;9.98;;
21036;SDS011;10677;50.942;4.028;2023-06-01T14:29:47;15.43;;;9.90;;
21036;SDS011;10677;50.942;4.028;2023-06-01T14:32:13;16.48;;;8.80;;
21036;SDS011;10677;50.942;4.028;2023-06-01T14:34:39;16.98;;;9.07;;
21036;SDS011;10677;50.942;4.028;2023-06-01T14:37:04;15.38;;;9.73;;
21036;SDS011;10677;50.942;4.028;2023-06-01T14:39:32;16.30;;;9.40;;
21036;SDS011;10677;50.942;4.028;2023-06-01T14:41:57;15.80;;;8.77;;
21036;SDS011;10677;50.942;4.028;2023-06-01T14:44:23;13.82;;;8.20;;
21036;SDS011;10677;50.942;4.028;2023-06-01T14:46:48;14.85;;;9.02;;
21036;SDS011;10677;50.942;4.028;2023-06-01T14:49:14;14.70;;;8.98;;
21036;SDS011;10677;50.942;4.028;2023-06-01T14:51:40;17.75;;;9.90;;
21036;SDS011;10677;50.942;4.028;2023-06-01T14:54:05;15.82;;;9.00;;
21036;SDS011;10677;50.942;4.028;2023-06-01T14:56:31;11.88;;;7.85;;
21036;SDS011;10677;50.942;4.028;2023-06-01T14:58:57;15.10;;;8.52;;
21036;SDS011;10677;50.942;4.028;2023-06-01T15:01:22;13.48;;;9.05;;
21036;SDS011;10677;50.942;4.028;2023-06-01T15:03:52;16.58;;;8.20;;
21036;SDS011;10677;50.942;4.028;2023-06-01T15:06:18;12.30;;;7.57;;
21036;SDS011;10677;50.942;4.028;2023-06-01T15:08:43;12.05;;;6.70;;
21036;SDS011;10677;50.942;4.028;2023-06-01T15:11:09;14.23;;;6.70;;
21036;SDS011;10677;50.942;4.028;2023-06-01T15:13:35;13.77;;;6.80;;
21036;SDS011;10677;50.942;4.028;2023-06-01T15:16:02;11.25;;;7.53;;